Weather observations for the past three days for
Jefferson - Ashe County Airport
Metric (Imperial)
Date Time (edt) Wind (kph) Vis. (km) Weather Sky Cond. Temperature (ºC) Relative Humidity Wind Chill (°C) Heat Index (°C) Pressure Precipitation (cm)
Air Dwpt 6 hour altimeter (cm) sea level (mb) 1 hr 3 hr 6 hr
Max. Min.
10 10:35 W 13 16.09 Fair CLR 18 5.9 45% 76.45 0.0
10 10:15 W 11 16.09 Fair CLR 17.3 5.9 47% 76.43 0.0
10 09:55 W 9 16.09 Fair CLR 17.1 6 48% 76.45 0.0
10 09:35 Calm 16.09 Fair CLR 16.1 7.9 59% 76.45 0.0
10 09:15 Calm 16.09 Fair CLR 16 6.6 54% 76.43 0.0
10 08:55 Calm 16.09 Fair CLR 14.8 7.1 60% 76.4 0.0
10 08:35 E 6 16.09 Fair CLR 13.7 7.5 66% 76.4 0.0
10 08:15 Calm 16.09 Fair CLR 13.2 7.9 70% 76.4 0.0
10 07:55 Calm 16.09 Fair CLR 13.3 6.4 14 8 63% 76.38 0.0
10 07:35 W 13 16.09 Fair CLR 12.5 5.5 63% 76.35 0.0
10 07:15 W 6 16.09 Fair CLR 11.8 5.2 64% 76.3 0.0
10 06:55 W 7 16.09 Fair CLR 12.2 5 62% 76.3 0.0
10 06:35 W 6 16.09 Fair CLR 11.1 4.9 66% 76.28 0.0
10 06:15 NW 9 16.09 Fair CLR 11.8 4.5 61% 76.28 0.0
10 05:55 NW 7 16.09 Fair CLR 11.7 5.1 64% 76.23 0.0
10 05:35 NW 9 16.09 Fair CLR 13 5.2 59% 76.23 0.0
10 05:15 W 11 16.09 Fair CLR 12.4 7.1 70% 76.23 0.0
10 04:55 Calm 16.09 Fair CLR 9.3 6.9 85% 76.23 0.0
10 04:35 W 6 16.09 Fair CLR 12 8.5 79% 76.23 0.0
10 04:15 Calm 16.09 Fair CLR 11.5 8.3 81% 76.17 0.0
10 03:55 Calm 16.09 Fair CLR 11.2 8.2 82% 76.17 0.0
10 03:35 Calm 16.09 Fair CLR 10.5 8.1 85% 76.17 0.0
10 03:15 Calm 16.09 Fair CLR 8.3 7.3 94% 76.17 0.0
10 02:55 NW 11 16.09 Fair CLR 12.6 8.6 77% 76.15 0.0
10 02:35 W 11 16.09 Fair CLR 13.5 8.7 73% 76.17 0.0
10 02:15 W 9 16.09 Fair CLR 12.5 8.1 75% 76.17 0.0
10 01:55 Calm 16.09 Fair CLR 12.6 7.7 17 10.7 72% 76.17 0.0
10 01:35 Calm 16.09 Fair CLR 12 7.7 75% 76.17 0.0
10 01:15 Calm 16.09 Fair CLR 12.4 7.7 73% 76.17 0.0
10 00:55 Calm 16.09 Fair CLR 12.6 7.6 72% 76.17 0.0
10 00:35 Calm 16.09 Fair CLR 12 7.5 74% 76.17 0.0
10 00:15 SE 6 16.09 Fair CLR 11.3 7.6 78% 76.17 0.0
09 23:55 W 6 16.09 Fair CLR 12 7.6 75% 76.17 0.0
09 23:35 Calm 16.09 Fair CLR 11.7 7.5 76% 76.17 0.0
09 23:15 W 9 16.09 Fair CLR 14.5 7.5 63% 76.17 0.0
09 22:55 W 7 16.09 Fair CLR 14.5 7.5 63% 76.17 0.0
09 22:35 W 6 16.09 Fair CLR 12.3 7.7 74% 76.15 0.0
09 22:15 W 9 16.09 Fair CLR 15.5 7.4 59% 76.15 0.0
09 21:55 W 9 16.09 Fair CLR 15.6 7.2 58% 76.12 0.0
09 21:35 W 6 16.09 Fair CLR 15.7 7.1 57% 76.12 0.0
09 21:15 SW 6 16.09 Fair CLR 15.7 7 56% 76.07 0.0
09 20:55 Calm 16.09 Fair CLR 15.9 6.8 55% 76.05 0.0
09 20:35 W 9 16.09 Fair CLR 16.4 6.6 53% 76.02 0.0
09 20:15 W 17 16.09 Fair CLR 16.6 6.2 50% 76 0.0
09 19:55 W 15 16.09 Partly Cloudy SCT050 17.2 5.8 20.5 17.2 47% 76 0.0
09 19:35 W 6 16.09 Partly Cloudy SCT050 17.5 6.5 49% 76 0.0
09 19:15 W 13 16.09 Partly Cloudy SCT050 17.9 6.4 47% 76 0.0
09 18:55 W 17 16.09 Fair CLR 18.1 6.6 47% 76 0.0
09 18:35 W 17 16.09 Fair CLR 18 6.5 47% 75.97 0.0
09 18:15 W 24 16.09 Fair CLR 18 7 49% 75.97 0.0
09 17:55 W 17 G 35 16.09 Partly Cloudy SCT050 18.2 7.4 50% 75.97 0.0
09 17:35 W 19 G 28 16.09 Mostly Cloudy SCT050 BKN055 18.5 7 47% 75.97 0.0
09 17:15 W 20 G 30 16.09 Partly Cloudy SCT048 SCT060 18.5 7.3 48% 75.95 0.0
09 16:55 W 20 G 28 16.09 Partly Cloudy SCT050 18.8 7.3 47% 75.95 0.0
09 16:35 W 22 G 35 16.09 Mostly Cloudy BKN050 19 6.9 46% 75.92 0.0
09 16:15 W 19 G 35 16.09 Partly Cloudy SCT060 SCT065 19.5 6.4 43% 75.92 0.0
09 15:55 W 13 G 33 16.09 Partly Cloudy SCT060 19.9 4.9 37% 75.92 0.0
09 15:35 W 22 G 31 16.09 Fair CLR 19.9 4.6 37% 75.92 0.0
09 15:15 W 17 G 39 16.09 Fair CLR 19.8 4.3 36% 75.92 0.0
09 14:55 W 20 G 31 16.09 Partly Cloudy SCT070 19.7 4.9 38% 75.9 0.0
09 14:35 Calm 16.09 Partly Cloudy SCT060 SCT070 18 9.9 59% 75.9 0.0
09 14:15 S 7 16.09 Partly Cloudy SCT046 SCT060 SCT070 17.6 9.1 58% 75.92 0.0
09 13:55 Calm 16.09 Mostly Cloudy SCT035 SCT046 BKN050 17.8 10.2 17.9 9.7 61% 75.92 0.0
09 13:35 S 7 16.09 Overcast SCT035 BKN044 OVC050 16.3 9.3 63% 75.95 0.0
09 13:15 S 9 16.09 Overcast SCT029 BKN046 OVC050 17 10.1 64% 75.95 0.0
09 12:55 Calm 16.09 Overcast SCT029 BKN050 OVC060 15.7 9 65% 75.97 0.0
09 12:35 Calm 16.09 Overcast OVC055 17.3 6.9 51% 76 0.0
09 12:15 SW 7 16.09 Overcast SCT033 SCT049 OVC055 16.1 7.7 58% 76 0.0
09 11:55 Calm 16.09 Mostly Cloudy SCT035 SCT045 BKN055 16 9.4 65% 76 0.0
09 11:35 E 9 16.09 Mostly Cloudy SCT030 SCT039 BKN045 15.8 9.7 67% 75.97 0.0
09 11:15 E 11 16.09 Partly Cloudy SCT030 SCT038 SCT048 15.5 9.1 66% 75.95 0.0
09 10:55 E 11 16.09 Partly Cloudy SCT037 15 8.9 67% 75.97 0.0
09 10:35 E 9 16.09 Fair CLR 14.5 9.1 70% 75.97 0.0
09 10:15 Calm 16.09 Fair CLR 13.9 8.5 70% 75.97 0.0
09 09:55 E 7 16.09 Fair CLR 13.4 8.4 72% 76 0.0
09 09:35 S 7 16.09 Fair CLR 12.9 8.6 75% 75.97 0.0
09 09:15 Calm 16.09 Fair CLR 11.8 8.4 80% 76 0.0
09 08:55 Calm 16.09 Fair CLR 10.5 8 85% 76.02 0.0
09 08:35 Calm 16.09 Fair CLR 10.8 8.1 84% 76.02 0.0
09 08:15 Calm 16.09 Fair CLR 10.5 8.2 86% 76.05 0.0
09 07:55 Calm 16.09 Fair CLR 9.4 7.3 10.1 8.1 87% 76.05 0.0
09 07:35 Calm 16.09 Fair CLR 9.2 7.1 87% 76.02 0.0
09 07:15 Calm 16.09 Fair CLR 9.5 7 85% 76.02 0.0
09 06:55 Calm 16.09 Fair CLR 8.5 6.7 89% 76 0.0
09 06:35 Calm 16.09 Fair CLR 8.6 7 90% 76 0.0
09 06:15 Calm 16.09 Fair CLR 8.8 6.9 88% 75.97 0.0
09 05:55 Calm 16.09 Fair CLR 8.5 6.6 88% 75.97 0.0
09 05:35 Calm 16.09 Partly Cloudy SCT020 8.7 6.9 89% 75.97 0.0
09 05:15 SE 6 16.09 Partly Cloudy SCT020 8.8 7 89% 76 0.0
09 04:55 SE 6 16.09 Mostly Cloudy BKN020 9.1 6.8 86% 76 0.0
09 04:35 SE 6 16.09 Partly Cloudy SCT020 9.4 7 85% 76 0.0
09 04:15 S 6 16.09 Partly Cloudy SCT020 9.1 6.8 86% 76 0.0
09 03:55 S 6 16.09 Fair CLR 9.2 6.8 85% 76 0.0
09 03:35 S 6 16.09 Fair CLR 9.5 6.8 83% 76.02 0.0
09 03:15 S 6 16.09 Fair CLR 10 7 82% 76.05 0.0
09 02:55 Calm 16.09 Fair CLR 10.1 7 81% 76.07 0.0
09 02:35 S 6 16.09 Fair CLR 9.8 7 83% 76.05 0.0
09 02:15 S 6 16.09 Fair CLR 9.9 6.9 82% 76.07 0.0
09 01:55 S 6 16.09 Fair CLR 10.1 6.8 13.5 9.8 80% 76.12 0.0
09 01:35 S 6 16.09 Fair CLR 10 6.6 80% 76.12 0.0
09 01:15 S 6 16.09 Fair CLR 10 6.5 79% 76.15 0.0
09 00:55 S 6 16.09 Fair CLR 10 6.5 79% 76.15 0.0
09 00:35 S 6 16.09 Fair CLR 10.2 6.5 78% 76.15 0.0
09 00:15 S 6 16.09 Fair CLR 10.4 6.2 75% 76.15 0.0
08 23:55 S 6 16.09 Fair CLR 10.5 6.1 74% 76.17 0.0
08 23:35 S 6 16.09 Fair CLR 10.6 6 73% 76.17 0.0
08 23:15 Calm 16.09 Fair CLR 10.5 6 74% 76.17 0.0
08 22:55 Calm 16.09 Fair CLR 10.6 6 73% 76.17 0.0
08 22:35 Calm 16.09 Fair CLR 10.9 5.8 71% 76.2 0.0
08 22:15 Calm 16.09 Fair CLR 11 5.6 70% 76.2 0.0
08 21:55 Calm 16.09 Partly Cloudy SCT040 11.4 5.5 67% 76.17 0.0
08 21:35 Calm 16.09 Mostly Cloudy SCT036 BKN042 11 5.2 68% 76.17 0.0
08 21:15 Calm 16.09 Mostly Cloudy SCT035 BKN043 11.3 5.1 66% 76.17 0.0
08 20:55 Calm 16.09 Partly Cloudy SCT045 12 5 63% 76.17 0.0
08 20:35 Calm 16.09 Fair CLR 12.5 4.7 59% 76.15 0.0
08 20:15 S 9 16.09 Fair CLR 13 4.5 57% 76.15 0.0
08 19:55 S 9 16.09 Fair CLR 13.5 4.4 16.7 13.5 54% 76.12 0.0
08 19:35 S 7 16.09 Fair CLR 14.1 4.2 52% 76.12 0.0
08 19:15 S 9 16.09 Fair CLR 14.4 4 50% 76.12 0.0
08 18:55 S 9 16.09 Fair CLR 14.6 3 46% 76.15 0.0
08 18:35 S 11 16.09 Fair CLR 15.2 2.2 42% 76.12 0.0
08 18:15 SE 13 16.09 Fair CLR 15.3 1 38% 76.12 0.0
08 17:55 SE 11 16.09 Fair CLR 15.7 0.6 36% 76.1 0.0
08 17:35 SE 11 16.09 Fair CLR 15.9 -0.1 34% 76.1 0.0
08 17:15 S 13 16.09 Fair CLR 15.9 -0.8 32% 76.1 0.0
08 16:55 SE 15 16.09 Fair CLR 16.1 -0.5 32% 76.12 0.0
08 16:35 S 13 G 28 16.09 Fair CLR 16.2 -0.5 32% 76.15 0.0
08 16:15 SE 9 G 28 16.09 Fair CLR 16.4 -0.3 32% 76.17 0.0
08 15:55 SE 11 G 35 16.09 Fair CLR 16.2 -0.8 32% 76.17 0.0
08 15:35 SE 17 16.09 Fair CLR 15.7 -0.7 33% 76.2 0.0
08 15:15 SE 9 16.09 Fair CLR 15.7 -1.5 31% 76.23 0.0
08 14:55 S 13 16.09 Fair CLR 15.4 -1.4 32% 76.25 0.0
08 14:35 S 15 16.09 Fair CLR 15.3 -1.9 31% 76.25 0.0
08 14:15 E 6 16.09 Fair CLR 14.9 -1.3 33% 76.25 0.0
08 13:55 E 17 16.09 Fair CLR 15.3 1 15.3 5.5 38% 76.28 0.0
08 13:35 E 19 16.09 Fair CLR 14.1 0.1 39% 76.3 0.0
08 13:15 S 11 16.09 Fair CLR 14.2 0.2 39% 76.3 0.0
08 12:55 Calm 16.09 Fair CLR 13.9 -0.8 37% 76.33 0.0
08 12:35 SW 9 16.09 Fair CLR 13.8 -2.6 32% 76.35 0.0
08 12:15 SE 6 16.09 Fair CLR 13.8 -1.7 34% 76.38 0.0
08 11:55 NE 9 16.09 Fair CLR 13.3 -1.9 35% 76.4 0.0
08 11:35 NE 11 16.09 Fair CLR 12.8 -1.6 37% 76.4 0.0
08 11:15 SE 6 16.09 Fair CLR 12.2 -3 35% 76.4 0.0
08 10:55 S 6 16.09 Fair CLR 11.8 -2.5 37% 76.4 0.0
08 10:35 Calm 16.09 Fair CLR 10.8 -3 38% 76.4 0.0
08 10:15 N 6 16.09 Fair CLR 10.7 -2.5 40% 76.4 0.0
08 09:55 E 9 16.09 Fair CLR 10 -1.9 44% 9 76.4 0.0
08 09:35 Calm 16.09 Fair CLR 9.5 -0.3 51% 76.4 0.0
08 09:15 SE 6 16.09 Fair CLR 8.9 0.3 55% 76.38 0.0
08 08:55 Calm 16.09 Fair CLR 7.7 -0.1 58% 76.38 0.0
08 08:35 SE 6 16.09 Fair CLR 6.8 0.8 66% 76.38 0.0
08 08:15 Calm 16.09 Fair CLR 7.1 0.1 61% 76.35 0.0
08 07:55 Calm 16.09 Fair CLR 5.5 -0.1 7 3.3 68% 76.33 0.0
08 07:35 Calm 16.09 Fair CLR 5.3 -0.4 67% 76.3 0.0
08 07:15 E 6 16.09 Fair CLR 5.6 -0.9 63% 76.28 0.0
08 06:55 E 6 16.09 Fair CLR 3.8 0 77% 76.25 0.0
08 06:35 Calm 16.09 Fair CLR 4 -0.7 72% 76.23 0.0
08 06:15 NW 11 16.09 Fair CLR 5 -0.6 67% 3 76.23 0.0
08 05:55 NW 9 16.09 Fair CLR 4.8 -0.3 70% 3 76.23 0.0
08 05:35 NW 6 16.09 Fair CLR 5.1 -0.1 69% 76.2 0.0
08 05:15 NW 7 16.09 Fair CLR 5.3 0 69% 4 76.2 0.0
08 04:55 NW 9 16.09 Fair CLR 5.6 0.2 69% 4 76.23 0.0
08 04:35 NW 13 16.09 Fair CLR 5.7 0.6 70% 3 76.2 0.0
08 04:15 NW 15 16.09 Fair CLR 6 1 71% 3 76.17 0.0
08 03:55 NW 13 16.09 Fair CLR 6 1.5 73% 4 76.17 0.0
08 03:35 NW 19 16.09 Fair CLR 6.1 2 75% 3 76.17 0.0
08 03:15 NW 20 16.09 Fair CLR 6.3 2.3 76% 3 76.17 0.0
08 02:55 NW 17 16.09 Fair CLR 6.3 2.6 77% 3 76.17 0.0
08 02:35 NW 13 16.09 Fair CLR 6.6 2.8 77% 4 76.23 0.0
08 02:15 NW 11 16.09 Fair CLR 6.7 3.1 78% 5 76.23 0.0
08 01:55 NW 13 16.09 Fair CLR 7 4 9.5 7 81% 5 76.23 0.0
08 01:35 NW 13 16.09 Fair CLR 7 4.4 84% 5 76.23 0.0
08 01:15 NW 9 16.09 Fair CLR 7.7 4.2 79% 6 76.23 0.0
08 00:55 NW 7 16.09 Partly Cloudy SCT044 8 4.5 79% 7 76.2 0.0
08 00:35 NW 6 16.09 Mostly Cloudy SCT038 BKN046 8.3 4.8 79% 76.2 0.0
08 00:15 NW 9 16.09 Mostly Cloudy SCT023 BKN039 BKN045 8.6 4.8 77% 7 76.17 0.0
07 23:55 W 7 16.09 Overcast SCT023 SCT029 OVC040 8.6 5.1 79% 8 76.17 0.0
07 23:35 W 9 16.09 Overcast SCT023 SCT029 OVC042 8.6 5.2 79% 7 76.17 0.0
07 23:15 W 11 16.09 Partly Cloudy SCT024 SCT029 SCT040 8.5 5.2 80% 7 76.17 0.0
07 22:55 W 11 16.09 Partly Cloudy SCT038 8.6 5.1 79% 7 76.15 0.0
07 22:35 W 13 16.09 Fair CLR 8.5 4.7 77% 7 76.15 0.0
07 22:15 W 13 16.09 Fair CLR 8.7 4.5 75% 7 76.12 0.0
07 21:55 NW 15 16.09 Fair CLR 8.8 4.5 75% 7 76.12 0.0
07 21:35 W 17 G 28 16.09 Fair CLR 8.8 4.2 73% 7 76.07 0.0
07 21:15 W 17 16.09 Fair CLR 8.7 4.2 74% 6 76.05 0.0
07 20:55 NW 13 16.09 Fair CLR 8.8 4.2 73% 7 76.02 0.0
07 20:35 W 17 G 28 16.09 Fair CLR 9 4 71% 7 76.02 0.0
07 20:15 W 17 G 31 16.09 Fair CLR 9.3 4 70% 7 76.02 0.0
07 19:55 W 22 G 28 16.09 Fair CLR 9.5 4.3 15.4 9.5 70% 7 76 0.0
07 19:35 W 22 G 37 16.09 Partly Cloudy SCT024 9.6 4.5 71% 7 76 0.0
07 19:15 W 28 G 39 16.09 Partly Cloudy SCT024 10.1 4.4 68% 76 0.0
07 18:55 W 33 G 46 16.09 Fair and Breezy CLR 10.2 4.5 68% 75.97 0.0
07 18:35 W 33 G 44 16.09 Fair and Breezy CLR 10.1 5.1 71% 75.97 0.0
07 18:15 W 30 G 48 16.09 Partly Cloudy SCT015 10.2 5.2 71% 75.95 0.0
07 17:55 W 24 G 41 16.09 Mostly Cloudy SCT015 BKN023 10.4 5.8 73% 75.95 0.0
07 17:35 W 30 G 35 16.09 Overcast BKN013 OVC023 9.6 6 78% 6 75.92 0.0
07 17:15 W 33 G 43 16.09 Overcast and Breezy OVC013 11.3 7.2 76% 75.92 0.0
07 16:55 W 22 G 41 16.09 Overcast OVC013 12.4 7.9 74% 75.87 0.0
07 16:35 W 30 G 43 16.09 Mostly Cloudy BKN013 12.7 8 73% 75.87 0.0
07 16:15 W 30 G 48 16.09 Partly Cloudy SCT015 13.1 8.4 73% 75.84 0.0
07 15:55 W 31 G 46 16.09 Fair CLR 14 8.5 70% 75.84 0.0
07 15:35 W 39 G 44 16.09 Partly Cloudy and Breezy SCT016 13.5 9.2 75% 75.87 0.0
07 15:15 W 35 G 46 16.09 Partly Cloudy and Breezy SCT014 14.6 9.3 71% 75.87 0.0
07 14:55 W 28 G 41 16.09 Fair CLR 15 9.5 70% 75.9 0.0
07 14:35 W 35 G 41 16.09 Partly Cloudy and Breezy SCT075 15 9.6 70% 75.9 0.0
07 14:15 W 26 G 46 16.09 Mostly Cloudy SCT055 BKN065 BKN075 14.7 9.6 72% 75.9 0.0
07 13:55 W 26 16.09 Overcast OVC060 15.3 10.3 17.4 13 72% 75.87 0.0 0.03
07 13:35 W 30 G 39 16.09 Mostly Cloudy SCT030 SCT039 BKN060 17.3 11 67% 75.84 0.0
07 13:15 W 24 16.09 Mostly Cloudy SCT029 SCT036 BKN065 17.2 11.2 68% 75.84 0.0
07 12:55 W 20 G 30 16.09 Overcast SCT050 OVC065 17.1 11.3 69% 75.84 0.0
07 12:35 W 13 16.09 Overcast SCT021 OVC060 16.6 11.3 71% 75.87 0.0
07 12:15 NE 6 16.09 Overcast BKN021 BKN050 OVC070 16.7 13.1 79% 75.87 0.0
07 11:55 W 9 16.09 Mostly Cloudy BKN021 BKN060 BKN070 16.5 12.1 75% 75.87 0.0
07 11:35 W 9 16.09 Mostly Cloudy SCT015 BKN021 BKN027 16.6 12.7 78% 75.87 0.0
07 11:15 W 9 16.09 Overcast SCT008 BKN013 OVC028 16.6 13.5 82% 75.87 0.0
07 10:55 Calm 16.09 Overcast BKN008 OVC021 15.4 13.6 89% 75.9 0.0 0.03
Date Time (edt) Wind (kph) Vis. (km) Weather Sky Cond. Air Dwpt Max. Min. Relative Humidity Wind Chill (°C) Heat Index (°C) altimeter (cm) sea level (mb) 1 hr 3 hr 6 hr
6 hour
Temperature (ºC) Pressure Precipitation (cm)